sensor_id;sensor_type;location;lat;lon;timestamp;P1;durP1;ratioP1;P2;durP2;ratioP2
6029;SDS011;3043;42.682;23.376;2023-02-28T00:00:47;20.80;;;12.60;;
6029;SDS011;3043;42.682;23.376;2023-02-28T00:03:12;22.23;;;12.40;;
6029;SDS011;3043;42.682;23.376;2023-02-28T00:05:38;18.77;;;11.70;;
6029;SDS011;3043;42.682;23.376;2023-02-28T00:08:04;23.50;;;12.97;;
6029;SDS011;3043;42.682;23.376;2023-02-28T00:10:30;19.17;;;11.67;;
6029;SDS011;3043;42.682;23.376;2023-02-28T00:12:59;23.30;;;13.67;;
6029;SDS011;3043;42.682;23.376;2023-02-28T00:15:27;32.90;;;16.03;;
6029;SDS011;3043;42.682;23.376;2023-02-28T00:17:53;25.27;;;13.83;;
6029;SDS011;3043;42.682;23.376;2023-02-28T00:20:18;22.60;;;13.57;;
6029;SDS011;3043;42.682;23.376;2023-02-28T00:22:45;28.00;;;13.63;;
6029;SDS011;3043;42.682;23.376;2023-02-28T00:25:13;25.70;;;14.17;;
6029;SDS011;3043;42.682;23.376;2023-02-28T00:27:40;27.27;;;16.40;;
6029;SDS011;3043;42.682;23.376;2023-02-28T00:30:07;24.37;;;15.27;;
6029;SDS011;3043;42.682;23.376;2023-02-28T00:32:35;28.60;;;16.43;;
6029;SDS011;3043;42.682;23.376;2023-02-28T00:35:01;23.67;;;13.80;;
6029;SDS011;3043;42.682;23.376;2023-02-28T00:37:28;25.00;;;14.40;;
6029;SDS011;3043;42.682;23.376;2023-02-28T00:39:53;23.60;;;13.90;;
6029;SDS011;3043;42.682;23.376;2023-02-28T00:42:19;22.77;;;14.30;;
6029;SDS011;3043;42.682;23.376;2023-02-28T00:44:44;27.73;;;15.77;;
6029;SDS011;3043;42.682;23.376;2023-02-28T00:47:10;28.43;;;16.57;;
6029;SDS011;3043;42.682;23.376;2023-02-28T00:49:35;24.93;;;15.03;;
6029;SDS011;3043;42.682;23.376;2023-02-28T00:52:01;25.90;;;16.50;;
6029;SDS011;3043;42.682;23.376;2023-02-28T00:54:27;25.23;;;15.23;;
6029;SDS011;3043;42.682;23.376;2023-02-28T00:56:52;24.60;;;15.00;;
6029;SDS011;3043;42.682;23.376;2023-02-28T00:59:17;23.63;;;14.33;;
6029;SDS011;3043;42.682;23.376;2023-02-28T01:01:44;27.23;;;15.23;;
6029;SDS011;3043;42.682;23.376;2023-02-28T01:04:10;24.37;;;13.93;;
6029;SDS011;3043;42.682;23.376;2023-02-28T01:06:35;22.47;;;14.23;;
6029;SDS011;3043;42.682;23.376;2023-02-28T01:09:02;25.23;;;14.10;;
6029;SDS011;3043;42.682;23.376;2023-02-28T01:11:28;25.70;;;15.17;;
6029;SDS011;3043;42.682;23.376;2023-02-28T01:13:54;24.57;;;14.03;;
6029;SDS011;3043;42.682;23.376;2023-02-28T01:16:19;24.70;;;14.40;;
6029;SDS011;3043;42.682;23.376;2023-02-28T01:18:45;23.03;;;13.87;;
6029;SDS011;3043;42.682;23.376;2023-02-28T01:21:12;28.70;;;15.97;;
6029;SDS011;3043;42.682;23.376;2023-02-28T01:23:40;25.23;;;14.87;;
6029;SDS011;3043;42.682;23.376;2023-02-28T01:26:27;25.70;;;14.70;;
6029;SDS011;3043;42.682;23.376;2023-02-28T01:28:52;28.13;;;14.90;;
6029;SDS011;3043;42.682;23.376;2023-02-28T01:31:18;24.97;;;14.57;;
6029;SDS011;3043;42.682;23.376;2023-02-28T01:33:45;28.17;;;15.57;;
6029;SDS011;3043;42.682;23.376;2023-02-28T01:38:38;24.03;;;14.87;;
6029;SDS011;3043;42.682;23.376;2023-02-28T01:41:04;27.60;;;16.07;;
6029;SDS011;3043;42.682;23.376;2023-02-28T01:46:19;25.00;;;14.87;;
6029;SDS011;3043;42.682;23.376;2023-02-28T01:51:39;24.27;;;14.73;;
6029;SDS011;3043;42.682;23.376;2023-02-28T01:54:16;25.97;;;15.43;;
6029;SDS011;3043;42.682;23.376;2023-02-28T01:56:47;26.20;;;14.60;;
6029;SDS011;3043;42.682;23.376;2023-02-28T02:02:16;27.00;;;15.80;;
6029;SDS011;3043;42.682;23.376;2023-02-28T02:04:50;26.33;;;14.97;;
6029;SDS011;3043;42.682;23.376;2023-02-28T02:07:20;23.73;;;15.17;;
6029;SDS011;3043;42.682;23.376;2023-02-28T02:09:46;25.63;;;15.00;;
6029;SDS011;3043;42.682;23.376;2023-02-28T02:18:09;30.43;;;16.33;;
6029;SDS011;3043;42.682;23.376;2023-02-28T02:34:43;27.57;;;17.10;;
6029;SDS011;3043;42.682;23.376;2023-02-28T02:40:00;28.73;;;17.13;;
6029;SDS011;3043;42.682;23.376;2023-02-28T02:43:30;30.63;;;17.90;;
6029;SDS011;3043;42.682;23.376;2023-02-28T02:45:36;29.93;;;18.50;;
6029;SDS011;3043;42.682;23.376;2023-02-28T02:48:06;32.97;;;19.50;;
6029;SDS011;3043;42.682;23.376;2023-02-28T02:50:38;36.30;;;19.90;;
6029;SDS011;3043;42.682;23.376;2023-02-28T02:53:19;39.30;;;21.20;;
6029;SDS011;3043;42.682;23.376;2023-02-28T02:55:50;37.47;;;19.73;;
6029;SDS011;3043;42.682;23.376;2023-02-28T02:58:20;37.63;;;20.47;;
6029;SDS011;3043;42.682;23.376;2023-02-28T03:00:53;34.67;;;20.20;;
6029;SDS011;3043;42.682;23.376;2023-02-28T03:03:22;38.70;;;21.83;;
6029;SDS011;3043;42.682;23.376;2023-02-28T03:05:54;38.40;;;21.73;;
6029;SDS011;3043;42.682;23.376;2023-02-28T03:08:25;40.23;;;21.90;;
6029;SDS011;3043;42.682;23.376;2023-02-28T03:10:54;36.33;;;21.20;;
6029;SDS011;3043;42.682;23.376;2023-02-28T03:24:22;46.87;;;24.23;;
6029;SDS011;3043;42.682;23.376;2023-02-28T03:27:10;37.37;;;21.33;;
6029;SDS011;3043;42.682;23.376;2023-02-28T03:29:46;50.00;;;25.27;;
6029;SDS011;3043;42.682;23.376;2023-02-28T03:32:17;50.60;;;23.60;;
6029;SDS011;3043;42.682;23.376;2023-02-28T03:35:00;44.97;;;22.93;;
6029;SDS011;3043;42.682;23.376;2023-02-28T03:37:31;48.97;;;24.30;;
6029;SDS011;3043;42.682;23.376;2023-02-28T03:40:03;43.77;;;22.83;;
6029;SDS011;3043;42.682;23.376;2023-02-28T03:42:34;53.37;;;26.50;;
6029;SDS011;3043;42.682;23.376;2023-02-28T03:45:21;44.67;;;23.57;;
6029;SDS011;3043;42.682;23.376;2023-02-28T03:47:54;52.33;;;24.20;;
6029;SDS011;3043;42.682;23.376;2023-02-28T03:50:37;43.33;;;23.60;;
6029;SDS011;3043;42.682;23.376;2023-02-28T03:53:11;60.90;;;23.77;;
6029;SDS011;3043;42.682;23.376;2023-02-28T03:55:45;50.63;;;26.00;;
6029;SDS011;3043;42.682;23.376;2023-02-28T04:00:50;46.03;;;23.80;;
6029;SDS011;3043;42.682;23.376;2023-02-28T04:03:20;49.40;;;22.23;;
6029;SDS011;3043;42.682;23.376;2023-02-28T04:05:50;49.50;;;23.03;;
6029;SDS011;3043;42.682;23.376;2023-02-28T04:08:18;41.50;;;21.77;;
6029;SDS011;3043;42.682;23.376;2023-02-28T04:10:45;39.97;;;20.87;;
6029;SDS011;3043;42.682;23.376;2023-02-28T04:13:15;38.10;;;20.90;;
6029;SDS011;3043;42.682;23.376;2023-02-28T04:15:41;32.37;;;19.93;;
6029;SDS011;3043;42.682;23.376;2023-02-28T04:18:06;35.40;;;19.23;;
6029;SDS011;3043;42.682;23.376;2023-02-28T04:20:32;38.47;;;20.30;;
6029;SDS011;3043;42.682;23.376;2023-02-28T04:22:57;36.23;;;19.70;;
6029;SDS011;3043;42.682;23.376;2023-02-28T04:25:23;32.10;;;18.47;;
6029;SDS011;3043;42.682;23.376;2023-02-28T04:27:48;35.37;;;20.67;;
6029;SDS011;3043;42.682;23.376;2023-02-28T04:30:14;36.93;;;20.03;;
6029;SDS011;3043;42.682;23.376;2023-02-28T04:32:39;46.73;;;21.77;;
6029;SDS011;3043;42.682;23.376;2023-02-28T04:35:05;41.33;;;21.47;;
6029;SDS011;3043;42.682;23.376;2023-02-28T04:37:30;42.77;;;21.20;;
6029;SDS011;3043;42.682;23.376;2023-02-28T04:39:59;50.33;;;25.67;;
6029;SDS011;3043;42.682;23.376;2023-02-28T04:42:25;39.50;;;20.17;;
6029;SDS011;3043;42.682;23.376;2023-02-28T04:44:51;39.43;;;22.23;;
6029;SDS011;3043;42.682;23.376;2023-02-28T04:47:17;37.97;;;18.83;;
6029;SDS011;3043;42.682;23.376;2023-02-28T04:49:42;36.90;;;20.13;;
6029;SDS011;3043;42.682;23.376;2023-02-28T04:52:08;36.60;;;18.07;;
6029;SDS011;3043;42.682;23.376;2023-02-28T04:54:34;35.33;;;18.53;;
6029;SDS011;3043;42.682;23.376;2023-02-28T04:57:00;38.80;;;20.33;;
6029;SDS011;3043;42.682;23.376;2023-02-28T04:59:26;39.43;;;19.73;;
6029;SDS011;3043;42.682;23.376;2023-02-28T05:01:52;40.50;;;20.53;;
6029;SDS011;3043;42.682;23.376;2023-02-28T05:04:17;181.13;;;66.70;;
6029;SDS011;3043;42.682;23.376;2023-02-28T05:06:43;64.90;;;25.60;;
6029;SDS011;3043;42.682;23.376;2023-02-28T05:09:09;51.07;;;22.77;;
6029;SDS011;3043;42.682;23.376;2023-02-28T05:11:36;54.40;;;26.13;;
6029;SDS011;3043;42.682;23.376;2023-02-28T05:14:04;75.67;;;31.57;;
6029;SDS011;3043;42.682;23.376;2023-02-28T05:16:31;76.17;;;30.77;;
6029;SDS011;3043;42.682;23.376;2023-02-28T05:18:57;55.93;;;29.37;;
6029;SDS011;3043;42.682;23.376;2023-02-28T05:21:33;54.40;;;29.23;;
6029;SDS011;3043;42.682;23.376;2023-02-28T05:24:04;62.87;;;31.03;;
6029;SDS011;3043;42.682;23.376;2023-02-28T05:26:36;59.37;;;29.70;;
6029;SDS011;3043;42.682;23.376;2023-02-28T05:29:03;49.93;;;27.80;;
6029;SDS011;3043;42.682;23.376;2023-02-28T05:31:30;51.90;;;27.73;;
6029;SDS011;3043;42.682;23.376;2023-02-28T05:33:55;53.67;;;28.10;;
6029;SDS011;3043;42.682;23.376;2023-02-28T05:36:21;56.37;;;28.07;;
6029;SDS011;3043;42.682;23.376;2023-02-28T05:38:47;52.93;;;26.77;;
6029;SDS011;3043;42.682;23.376;2023-02-28T05:41:13;61.77;;;27.20;;
6029;SDS011;3043;42.682;23.376;2023-02-28T05:43:39;53.03;;;27.03;;
6029;SDS011;3043;42.682;23.376;2023-02-28T05:46:05;52.10;;;28.50;;
6029;SDS011;3043;42.682;23.376;2023-02-28T05:48:33;66.50;;;29.70;;
6029;SDS011;3043;42.682;23.376;2023-02-28T05:50:59;56.93;;;27.20;;
6029;SDS011;3043;42.682;23.376;2023-02-28T05:53:25;64.20;;;28.33;;
6029;SDS011;3043;42.682;23.376;2023-02-28T05:55:51;67.10;;;28.23;;
6029;SDS011;3043;42.682;23.376;2023-02-28T05:58:17;63.90;;;29.93;;
6029;SDS011;3043;42.682;23.376;2023-02-28T06:00:42;72.93;;;28.77;;
6029;SDS011;3043;42.682;23.376;2023-02-28T06:03:07;56.60;;;27.97;;
6029;SDS011;3043;42.682;23.376;2023-02-28T06:05:33;58.30;;;26.63;;
6029;SDS011;3043;42.682;23.376;2023-02-28T06:07:58;57.47;;;27.57;;
6029;SDS011;3043;42.682;23.376;2023-02-28T06:10:24;48.10;;;26.10;;
6029;SDS011;3043;42.682;23.376;2023-02-28T06:12:49;48.37;;;26.43;;
6029;SDS011;3043;42.682;23.376;2023-02-28T06:15:15;44.87;;;26.00;;
6029;SDS011;3043;42.682;23.376;2023-02-28T06:17:42;48.37;;;24.23;;
6029;SDS011;3043;42.682;23.376;2023-02-28T06:20:08;54.37;;;27.67;;
6029;SDS011;3043;42.682;23.376;2023-02-28T06:22:36;63.60;;;32.00;;
6029;SDS011;3043;42.682;23.376;2023-02-28T06:25:02;84.50;;;36.33;;
6029;SDS011;3043;42.682;23.376;2023-02-28T06:27:29;86.97;;;37.03;;
6029;SDS011;3043;42.682;23.376;2023-02-28T06:29:55;69.50;;;34.13;;
6029;SDS011;3043;42.682;23.376;2023-02-28T06:32:21;62.77;;;31.93;;
6029;SDS011;3043;42.682;23.376;2023-02-28T06:34:47;62.53;;;29.37;;
6029;SDS011;3043;42.682;23.376;2023-02-28T06:37:12;44.93;;;23.20;;
6029;SDS011;3043;42.682;23.376;2023-02-28T06:39:38;43.87;;;23.80;;
6029;SDS011;3043;42.682;23.376;2023-02-28T06:42:04;50.40;;;28.10;;
6029;SDS011;3043;42.682;23.376;2023-02-28T06:44:29;47.53;;;27.00;;
6029;SDS011;3043;42.682;23.376;2023-02-28T06:47:00;43.37;;;25.03;;
6029;SDS011;3043;42.682;23.376;2023-02-28T06:49:30;39.53;;;24.50;;
6029;SDS011;3043;42.682;23.376;2023-02-28T06:51:57;44.83;;;24.07;;
6029;SDS011;3043;42.682;23.376;2023-02-28T06:54:22;48.00;;;26.93;;
6029;SDS011;3043;42.682;23.376;2023-02-28T06:56:47;44.13;;;23.80;;
6029;SDS011;3043;42.682;23.376;2023-02-28T06:59:13;39.27;;;22.23;;
6029;SDS011;3043;42.682;23.376;2023-02-28T07:01:39;39.47;;;24.20;;
6029;SDS011;3043;42.682;23.376;2023-02-28T07:04:05;44.00;;;26.37;;
6029;SDS011;3043;42.682;23.376;2023-02-28T07:06:31;44.57;;;26.63;;
6029;SDS011;3043;42.682;23.376;2023-02-28T07:08:57;41.80;;;25.40;;
6029;SDS011;3043;42.682;23.376;2023-02-28T07:11:23;41.77;;;25.67;;
6029;SDS011;3043;42.682;23.376;2023-02-28T07:13:51;40.23;;;24.63;;
6029;SDS011;3043;42.682;23.376;2023-02-28T07:16:18;33.40;;;20.40;;
6029;SDS011;3043;42.682;23.376;2023-02-28T07:18:43;40.70;;;23.93;;
6029;SDS011;3043;42.682;23.376;2023-02-28T07:21:09;46.73;;;26.10;;
6029;SDS011;3043;42.682;23.376;2023-02-28T07:23:35;38.37;;;24.10;;
6029;SDS011;3043;42.682;23.376;2023-02-28T07:26:03;32.90;;;19.53;;
6029;SDS011;3043;42.682;23.376;2023-02-28T07:28:29;31.57;;;19.70;;
6029;SDS011;3043;42.682;23.376;2023-02-28T07:30:55;30.80;;;18.33;;
6029;SDS011;3043;42.682;23.376;2023-02-28T07:33:20;30.23;;;19.47;;
6029;SDS011;3043;42.682;23.376;2023-02-28T07:35:46;34.17;;;19.90;;
6029;SDS011;3043;42.682;23.376;2023-02-28T07:38:11;34.00;;;21.63;;
6029;SDS011;3043;42.682;23.376;2023-02-28T07:40:38;27.93;;;20.53;;
6029;SDS011;3043;42.682;23.376;2023-02-28T07:43:04;31.53;;;22.37;;
6029;SDS011;3043;42.682;23.376;2023-02-28T07:45:30;38.10;;;22.47;;
6029;SDS011;3043;42.682;23.376;2023-02-28T07:47:59;34.10;;;19.93;;
6029;SDS011;3043;42.682;23.376;2023-02-28T07:50:25;35.17;;;22.43;;
6029;SDS011;3043;42.682;23.376;2023-02-28T07:52:52;40.47;;;24.53;;
6029;SDS011;3043;42.682;23.376;2023-02-28T07:55:19;36.63;;;25.03;;
6029;SDS011;3043;42.682;23.376;2023-02-28T07:57:44;37.40;;;24.67;;
6029;SDS011;3043;42.682;23.376;2023-02-28T08:00:10;41.50;;;26.27;;
6029;SDS011;3043;42.682;23.376;2023-02-28T08:02:37;38.87;;;26.63;;
6029;SDS011;3043;42.682;23.376;2023-02-28T08:05:03;44.03;;;28.23;;
6029;SDS011;3043;42.682;23.376;2023-02-28T08:07:29;42.13;;;27.87;;
6029;SDS011;3043;42.682;23.376;2023-02-28T08:09:55;41.07;;;28.17;;
6029;SDS011;3043;42.682;23.376;2023-02-28T08:12:20;39.67;;;27.97;;
6029;SDS011;3043;42.682;23.376;2023-02-28T08:14:46;47.27;;;32.27;;
6029;SDS011;3043;42.682;23.376;2023-02-28T08:17:11;46.27;;;29.03;;
6029;SDS011;3043;42.682;23.376;2023-02-28T08:19:37;41.03;;;27.83;;
6029;SDS011;3043;42.682;23.376;2023-02-28T08:22:03;40.40;;;27.10;;
6029;SDS011;3043;42.682;23.376;2023-02-28T08:24:29;39.53;;;25.50;;
6029;SDS011;3043;42.682;23.376;2023-02-28T08:26:55;38.10;;;24.83;;
6029;SDS011;3043;42.682;23.376;2023-02-28T08:29:20;51.57;;;32.37;;
6029;SDS011;3043;42.682;23.376;2023-02-28T08:31:46;41.73;;;28.80;;
6029;SDS011;3043;42.682;23.376;2023-02-28T08:34:12;50.07;;;34.37;;
6029;SDS011;3043;42.682;23.376;2023-02-28T08:36:39;37.83;;;26.93;;
6029;SDS011;3043;42.682;23.376;2023-02-28T08:39:05;37.53;;;23.83;;
6029;SDS011;3043;42.682;23.376;2023-02-28T08:41:31;31.80;;;16.87;;
6029;SDS011;3043;42.682;23.376;2023-02-28T08:43:56;30.13;;;16.83;;
6029;SDS011;3043;42.682;23.376;2023-02-28T08:46:22;28.40;;;15.70;;
6029;SDS011;3043;42.682;23.376;2023-02-28T08:48:50;29.00;;;15.97;;
6029;SDS011;3043;42.682;23.376;2023-02-28T08:51:20;28.03;;;15.87;;
6029;SDS011;3043;42.682;23.376;2023-02-28T08:53:51;25.47;;;15.67;;
6029;SDS011;3043;42.682;23.376;2023-02-28T08:56:22;31.00;;;15.90;;
6029;SDS011;3043;42.682;23.376;2023-02-28T08:58:48;32.37;;;16.73;;
6029;SDS011;3043;42.682;23.376;2023-02-28T09:03:41;31.67;;;15.53;;
6029;SDS011;3043;42.682;23.376;2023-02-28T09:06:07;23.80;;;14.00;;
6029;SDS011;3043;42.682;23.376;2023-02-28T09:08:34;26.30;;;13.53;;
6029;SDS011;3043;42.682;23.376;2023-02-28T09:11:00;29.97;;;15.47;;
6029;SDS011;3043;42.682;23.376;2023-02-28T09:13:27;27.07;;;13.93;;
6029;SDS011;3043;42.682;23.376;2023-02-28T09:15:53;27.90;;;14.30;;
6029;SDS011;3043;42.682;23.376;2023-02-28T09:18:19;28.07;;;14.67;;
6029;SDS011;3043;42.682;23.376;2023-02-28T09:20:45;29.77;;;15.97;;
6029;SDS011;3043;42.682;23.376;2023-02-28T09:25:58;23.77;;;12.97;;
6029;SDS011;3043;42.682;23.376;2023-02-28T09:28:23;22.40;;;14.13;;
6029;SDS011;3043;42.682;23.376;2023-02-28T09:30:50;27.30;;;14.40;;
6029;SDS011;3043;42.682;23.376;2023-02-28T09:33:17;23.93;;;14.93;;
6029;SDS011;3043;42.682;23.376;2023-02-28T09:35:48;28.20;;;14.53;;
6029;SDS011;3043;42.682;23.376;2023-02-28T09:38:14;26.20;;;14.30;;
6029;SDS011;3043;42.682;23.376;2023-02-28T09:43:11;26.33;;;13.27;;
6029;SDS011;3043;42.682;23.376;2023-02-28T09:45:40;24.83;;;13.33;;
6029;SDS011;3043;42.682;23.376;2023-02-28T09:48:28;25.57;;;16.37;;
6029;SDS011;3043;42.682;23.376;2023-02-28T09:51:02;22.93;;;12.10;;
6029;SDS011;3043;42.682;23.376;2023-02-28T09:53:31;23.73;;;13.60;;
6029;SDS011;3043;42.682;23.376;2023-02-28T09:56:04;21.00;;;12.10;;
6029;SDS011;3043;42.682;23.376;2023-02-28T10:04:00;24.43;;;13.27;;
6029;SDS011;3043;42.682;23.376;2023-02-28T10:06:38;19.83;;;11.97;;
6029;SDS011;3043;42.682;23.376;2023-02-28T10:09:25;23.97;;;11.10;;
6029;SDS011;3043;42.682;23.376;2023-02-28T10:12:05;20.30;;;11.40;;
6029;SDS011;3043;42.682;23.376;2023-02-28T10:14:32;22.87;;;12.03;;
6029;SDS011;3043;42.682;23.376;2023-02-28T10:17:01;22.10;;;11.63;;
6029;SDS011;3043;42.682;23.376;2023-02-28T10:22:00;20.40;;;12.07;;
6029;SDS011;3043;42.682;23.376;2023-02-28T10:24:38;20.57;;;12.07;;
6029;SDS011;3043;42.682;23.376;2023-02-28T10:27:16;21.97;;;12.63;;
6029;SDS011;3043;42.682;23.376;2023-02-28T10:29:46;17.50;;;10.80;;
6029;SDS011;3043;42.682;23.376;2023-02-28T10:32:15;19.20;;;10.57;;
6029;SDS011;3043;42.682;23.376;2023-02-28T10:34:43;22.57;;;10.33;;
6029;SDS011;3043;42.682;23.376;2023-02-28T10:37:09;26.47;;;10.23;;
6029;SDS011;3043;42.682;23.376;2023-02-28T10:39:45;18.63;;;10.77;;
6029;SDS011;3043;42.682;23.376;2023-02-28T10:42:24;25.63;;;11.60;;
6029;SDS011;3043;42.682;23.376;2023-02-28T10:48:02;19.17;;;10.53;;
6029;SDS011;3043;42.682;23.376;2023-02-28T10:50:50;18.87;;;10.80;;
6029;SDS011;3043;42.682;23.376;2023-02-28T10:55:57;21.03;;;10.93;;
6029;SDS011;3043;42.682;23.376;2023-02-28T10:58:30;19.13;;;10.03;;
6029;SDS011;3043;42.682;23.376;2023-02-28T11:01:08;21.43;;;11.37;;
6029;SDS011;3043;42.682;23.376;2023-02-28T11:03:39;19.57;;;10.63;;
6029;SDS011;3043;42.682;23.376;2023-02-28T11:06:06;19.10;;;10.23;;
6029;SDS011;3043;42.682;23.376;2023-02-28T11:08:43;16.93;;;9.70;;
6029;SDS011;3043;42.682;23.376;2023-02-28T11:11:17;22.03;;;9.73;;
6029;SDS011;3043;42.682;23.376;2023-02-28T11:13:43;25.30;;;11.60;;
6029;SDS011;3043;42.682;23.376;2023-02-28T11:16:12;21.30;;;11.17;;
6029;SDS011;3043;42.682;23.376;2023-02-28T11:21:24;23.13;;;10.57;;
6029;SDS011;3043;42.682;23.376;2023-02-28T11:23:55;22.67;;;12.13;;
6029;SDS011;3043;42.682;23.376;2023-02-28T11:26:37;21.77;;;12.00;;
6029;SDS011;3043;42.682;23.376;2023-02-28T11:29:12;25.43;;;11.83;;
6029;SDS011;3043;42.682;23.376;2023-02-28T11:31:42;22.53;;;10.83;;
6029;SDS011;3043;42.682;23.376;2023-02-28T11:34:22;21.07;;;11.57;;
6029;SDS011;3043;42.682;23.376;2023-02-28T11:36:49;22.10;;;12.60;;
6029;SDS011;3043;42.682;23.376;2023-02-28T11:39:16;24.63;;;13.00;;
6029;SDS011;3043;42.682;23.376;2023-02-28T11:46:53;29.93;;;13.03;;
6029;SDS011;3043;42.682;23.376;2023-02-28T11:49:42;26.00;;;12.03;;
6029;SDS011;3043;42.682;23.376;2023-02-28T11:52:40;19.40;;;10.40;;
6029;SDS011;3043;42.682;23.376;2023-02-28T12:06:21;19.53;;;11.43;;
6029;SDS011;3043;42.682;23.376;2023-02-28T12:08:33;21.93;;;10.57;;
6029;SDS011;3043;42.682;23.376;2023-02-28T12:11:16;17.97;;;9.93;;
6029;SDS011;3043;42.682;23.376;2023-02-28T12:14:18;19.40;;;10.73;;
6029;SDS011;3043;42.682;23.376;2023-02-28T12:22:10;21.93;;;11.80;;
6029;SDS011;3043;42.682;23.376;2023-02-28T12:24:48;20.87;;;11.33;;
6029;SDS011;3043;42.682;23.376;2023-02-28T12:27:18;21.90;;;12.17;;
6029;SDS011;3043;42.682;23.376;2023-02-28T12:29:54;24.33;;;10.73;;
6029;SDS011;3043;42.682;23.376;2023-02-28T12:33:06;19.83;;;12.00;;
6029;SDS011;3043;42.682;23.376;2023-02-28T12:35:25;20.30;;;11.17;;
6029;SDS011;3043;42.682;23.376;2023-02-28T12:37:58;22.27;;;11.47;;
6029;SDS011;3043;42.682;23.376;2023-02-28T12:40:32;21.63;;;11.37;;
6029;SDS011;3043;42.682;23.376;2023-02-28T12:43:08;21.37;;;9.50;;
6029;SDS011;3043;42.682;23.376;2023-02-28T12:48:04;22.30;;;11.33;;
6029;SDS011;3043;42.682;23.376;2023-02-28T12:50:33;21.27;;;10.50;;
6029;SDS011;3043;42.682;23.376;2023-02-28T12:53:13;21.70;;;11.33;;
6029;SDS011;3043;42.682;23.376;2023-02-28T13:09:51;23.27;;;11.50;;
6029;SDS011;3043;42.682;23.376;2023-02-28T13:12:20;21.97;;;9.87;;
6029;SDS011;3043;42.682;23.376;2023-02-28T13:14:47;22.93;;;11.23;;
6029;SDS011;3043;42.682;23.376;2023-02-28T13:17:18;20.57;;;10.60;;
6029;SDS011;3043;42.682;23.376;2023-02-28T13:19:55;24.70;;;11.30;;
6029;SDS011;3043;42.682;23.376;2023-02-28T13:22:40;24.40;;;11.87;;
6029;SDS011;3043;42.682;23.376;2023-02-28T13:28:02;26.07;;;12.17;;
6029;SDS011;3043;42.682;23.376;2023-02-28T13:38:40;20.53;;;10.50;;
6029;SDS011;3043;42.682;23.376;2023-02-28T13:46:32;21.00;;;11.70;;
6029;SDS011;3043;42.682;23.376;2023-02-28T14:05:05;16.43;;;8.30;;
6029;SDS011;3043;42.682;23.376;2023-02-28T14:07:49;19.27;;;9.40;;
6029;SDS011;3043;42.682;23.376;2023-02-28T14:10:31;22.00;;;9.60;;
6029;SDS011;3043;42.682;23.376;2023-02-28T14:13:00;20.40;;;10.23;;
6029;SDS011;3043;42.682;23.376;2023-02-28T14:18:23;24.23;;;10.30;;
6029;SDS011;3043;42.682;23.376;2023-02-28T14:20:52;21.83;;;10.57;;
6029;SDS011;3043;42.682;23.376;2023-02-28T14:26:14;22.37;;;10.60;;
6029;SDS011;3043;42.682;23.376;2023-02-28T14:31:29;19.30;;;10.53;;
6029;SDS011;3043;42.682;23.376;2023-02-28T14:36:33;22.57;;;11.73;;
6029;SDS011;3043;42.682;23.376;2023-02-28T14:41:58;19.70;;;10.60;;
6029;SDS011;3043;42.682;23.376;2023-02-28T14:44:28;20.33;;;10.10;;
6029;SDS011;3043;42.682;23.376;2023-02-28T14:49:36;28.03;;;10.73;;
6029;SDS011;3043;42.682;23.376;2023-02-28T14:52:12;19.10;;;10.60;;
6029;SDS011;3043;42.682;23.376;2023-02-28T14:54:42;21.37;;;10.03;;
6029;SDS011;3043;42.682;23.376;2023-02-28T14:57:23;24.53;;;10.73;;
6029;SDS011;3043;42.682;23.376;2023-02-28T15:00:13;21.57;;;11.87;;
6029;SDS011;3043;42.682;23.376;2023-02-28T15:02:46;18.90;;;9.50;;
6029;SDS011;3043;42.682;23.376;2023-02-28T15:07:37;26.33;;;11.00;;
6029;SDS011;3043;42.682;23.376;2023-02-28T15:10:36;19.33;;;9.37;;
6029;SDS011;3043;42.682;23.376;2023-02-28T15:12:57;21.73;;;8.93;;
6029;SDS011;3043;42.682;23.376;2023-02-28T15:15:27;21.00;;;9.77;;
6029;SDS011;3043;42.682;23.376;2023-02-28T15:18:05;21.47;;;9.30;;
6029;SDS011;3043;42.682;23.376;2023-02-28T15:20:32;17.90;;;10.00;;
6029;SDS011;3043;42.682;23.376;2023-02-28T15:22:59;17.43;;;9.43;;
6029;SDS011;3043;42.682;23.376;2023-02-28T15:25:25;18.13;;;9.73;;
6029;SDS011;3043;42.682;23.376;2023-02-28T15:27:52;17.30;;;10.27;;
6029;SDS011;3043;42.682;23.376;2023-02-28T15:30:27;20.23;;;10.00;;
6029;SDS011;3043;42.682;23.376;2023-02-28T15:35:47;17.00;;;8.97;;
6029;SDS011;3043;42.682;23.376;2023-02-28T15:38:15;19.17;;;8.50;;
6029;SDS011;3043;42.682;23.376;2023-02-28T15:40:50;16.17;;;9.40;;
6029;SDS011;3043;42.682;23.376;2023-02-28T15:43:29;18.30;;;9.53;;
6029;SDS011;3043;42.682;23.376;2023-02-28T15:46:10;14.70;;;8.50;;
6029;SDS011;3043;42.682;23.376;2023-02-28T15:48:50;14.07;;;9.43;;
6029;SDS011;3043;42.682;23.376;2023-02-28T15:51:18;18.30;;;10.50;;
6029;SDS011;3043;42.682;23.376;2023-02-28T15:58:43;13.63;;;8.07;;
6029;SDS011;3043;42.682;23.376;2023-02-28T16:01:24;15.57;;;9.80;;
6029;SDS011;3043;42.682;23.376;2023-02-28T16:03:54;15.40;;;8.97;;
6029;SDS011;3043;42.682;23.376;2023-02-28T16:09:02;16.70;;;9.77;;
6029;SDS011;3043;42.682;23.376;2023-02-28T16:11:28;24.63;;;13.77;;
6029;SDS011;3043;42.682;23.376;2023-02-28T16:13:55;15.37;;;8.63;;
6029;SDS011;3043;42.682;23.376;2023-02-28T16:16:23;16.13;;;8.13;;
6029;SDS011;3043;42.682;23.376;2023-02-28T16:18:50;14.80;;;7.23;;
6029;SDS011;3043;42.682;23.376;2023-02-28T16:21:16;15.60;;;8.27;;
6029;SDS011;3043;42.682;23.376;2023-02-28T16:23:42;12.37;;;7.47;;
6029;SDS011;3043;42.682;23.376;2023-02-28T16:26:07;14.53;;;7.60;;
6029;SDS011;3043;42.682;23.376;2023-02-28T16:28:34;16.00;;;7.97;;
6029;SDS011;3043;42.682;23.376;2023-02-28T16:31:02;14.77;;;7.90;;
6029;SDS011;3043;42.682;23.376;2023-02-28T16:33:31;15.30;;;7.23;;
6029;SDS011;3043;42.682;23.376;2023-02-28T16:35:57;13.47;;;7.10;;
6029;SDS011;3043;42.682;23.376;2023-02-28T16:38:24;11.33;;;6.50;;
6029;SDS011;3043;42.682;23.376;2023-02-28T16:40:50;16.50;;;8.10;;
6029;SDS011;3043;42.682;23.376;2023-02-28T16:43:20;18.37;;;9.70;;
6029;SDS011;3043;42.682;23.376;2023-02-28T16:45:50;18.03;;;10.53;;
6029;SDS011;3043;42.682;23.376;2023-02-28T16:48:20;15.30;;;8.53;;
6029;SDS011;3043;42.682;23.376;2023-02-28T16:50:45;13.33;;;7.73;;
6029;SDS011;3043;42.682;23.376;2023-02-28T16:53:11;21.50;;;13.00;;
6029;SDS011;3043;42.682;23.376;2023-02-28T16:55:36;15.10;;;8.60;;
6029;SDS011;3043;42.682;23.376;2023-02-28T16:58:02;26.03;;;13.83;;
6029;SDS011;3043;42.682;23.376;2023-02-28T17:00:29;18.37;;;10.80;;
6029;SDS011;3043;42.682;23.376;2023-02-28T17:02:56;26.30;;;14.83;;
6029;SDS011;3043;42.682;23.376;2023-02-28T17:05:24;16.50;;;7.80;;
6029;SDS011;3043;42.682;23.376;2023-02-28T17:07:50;28.23;;;13.47;;
6029;SDS011;3043;42.682;23.376;2023-02-28T17:12:42;13.90;;;7.80;;
6029;SDS011;3043;42.682;23.376;2023-02-28T17:15:08;22.63;;;13.07;;
6029;SDS011;3043;42.682;23.376;2023-02-28T17:17:35;18.77;;;10.13;;
6029;SDS011;3043;42.682;23.376;2023-02-28T17:20:01;13.63;;;6.40;;
6029;SDS011;3043;42.682;23.376;2023-02-28T17:22:28;10.53;;;5.33;;
6029;SDS011;3043;42.682;23.376;2023-02-28T17:24:53;8.17;;;4.50;;
6029;SDS011;3043;42.682;23.376;2023-02-28T17:27:22;8.80;;;4.60;;
6029;SDS011;3043;42.682;23.376;2023-02-28T17:29:48;10.00;;;4.53;;
6029;SDS011;3043;42.682;23.376;2023-02-28T17:32:13;11.93;;;4.60;;
6029;SDS011;3043;42.682;23.376;2023-02-28T17:34:39;9.17;;;5.00;;
6029;SDS011;3043;42.682;23.376;2023-02-28T17:37:04;7.60;;;4.03;;
6029;SDS011;3043;42.682;23.376;2023-02-28T17:39:29;8.23;;;3.97;;
6029;SDS011;3043;42.682;23.376;2023-02-28T17:41:55;8.43;;;4.20;;